createdAt,value
2022-12-13T00:00:53.666Z,94765.5
2022-12-13T00:01:56.158Z,94765.6
2022-12-13T00:02:58.693Z,94762.6
2022-12-13T00:04:01.760Z,94764.2
2022-12-13T00:05:04.180Z,94760.5
2022-12-13T00:06:06.404Z,94755.5
2022-12-13T00:07:08.600Z,94755.9
2022-12-13T00:08:11.438Z,94753.9
2022-12-13T00:09:13.716Z,94759
2022-12-13T00:10:15.894Z,94758.3
2022-12-13T00:11:18.399Z,94754.3
2022-12-13T00:12:20.571Z,94757.4
2022-12-13T00:13:22.800Z,94761.8
2022-12-13T00:14:25.291Z,94757.6
2022-12-13T00:15:27.784Z,94757.2
2022-12-13T00:16:30.489Z,94755.4
2022-12-13T00:17:33.083Z,94757.6
2022-12-13T00:18:35.562Z,94755.9
2022-12-13T00:19:37.802Z,94755.5
2022-12-13T00:20:40.335Z,94753.4
2022-12-13T00:21:42.830Z,94757.4
2022-12-13T00:22:44.734Z,94758.9
2022-12-13T00:23:46.960Z,94756.4
2022-12-13T00:24:49.446Z,94752.1
2022-12-13T00:25:51.388Z,94754.5
2022-12-13T00:26:53.587Z,94752.6
2022-12-13T00:27:55.798Z,94758
2022-12-13T00:28:57.991Z,94758.5
2022-12-13T00:30:00.496Z,94753.5
2022-12-13T00:32:07.976Z,94749.7
2022-12-13T00:33:10.019Z,94753.2
2022-12-13T00:34:12.512Z,94750.5
2022-12-13T00:35:16.343Z,94751.9
2022-12-13T00:36:18.914Z,94753.6
2022-12-13T00:37:20.839Z,94747.1
2022-12-13T00:38:23.027Z,94744.8
2022-12-13T00:39:24.992Z,94749.9
2022-12-13T00:40:27.485Z,94745.9
2022-12-13T00:41:29.960Z,94746.7
2022-12-13T00:42:32.178Z,94746.6
2022-12-13T00:43:34.370Z,94743.4
2022-12-13T00:44:36.589Z,94743.3
2022-12-13T00:45:39.162Z,94744.6
2022-12-13T00:46:41.805Z,94746.4
2022-12-13T00:47:43.996Z,94743.2
2022-12-13T00:48:46.500Z,94744.1
2022-12-13T00:49:48.730Z,94743.7
2022-12-13T00:50:51.211Z,94743
2022-12-13T00:51:53.449Z,94743.1
2022-12-13T00:52:55.645Z,94744.1
2022-12-13T00:53:58.115Z,94742.9
2022-12-13T00:54:59.805Z,94745.3
2022-12-13T00:56:02.294Z,94741.6
2022-12-13T00:57:04.792Z,94742.9
2022-12-13T00:58:07.259Z,94745.4
2022-12-13T00:59:09.746Z,94741.9
2022-12-13T01:00:12.226Z,94734.8
2022-12-13T01:01:15.076Z,94734.5
2022-12-13T01:02:17.684Z,94737.4
2022-12-13T01:03:20.611Z,94738.7
2022-12-13T01:04:23.231Z,94738.7
2022-12-13T01:06:30.717Z,94736.6
2022-12-13T01:07:33.287Z,94737.8
2022-12-13T01:08:35.508Z,94733.3
2022-12-13T01:09:37.735Z,94741.7
2022-12-13T01:10:39.969Z,94735.9
2022-12-13T01:11:41.894Z,94735.8
2022-12-13T01:12:44.387Z,94734.8
2022-12-13T01:13:46.872Z,94732
2022-12-13T01:15:54.063Z,94735.4
2022-12-13T01:16:56.434Z,94731.6
2022-12-13T01:17:59.126Z,94735.5
2022-12-13T01:19:01.634Z,94730
2022-12-13T01:20:04.138Z,94729.1
2022-12-13T01:21:06.625Z,94730.5
2022-12-13T01:22:08.837Z,94726.4
2022-12-13T01:23:11.355Z,94723.5
2022-12-13T01:24:13.557Z,94725.6
2022-12-13T01:25:17.328Z,94727.4
2022-12-13T01:26:19.941Z,94722.5
2022-12-13T01:27:22.441Z,94724.5
2022-12-13T01:28:24.933Z,94723.2
2022-12-13T01:29:27.802Z,94720.3
2022-12-13T01:30:30.331Z,94717.3
2022-12-13T01:31:32.908Z,94714.4
2022-12-13T01:32:35.534Z,94717.8
2022-12-13T01:33:37.735Z,94718.8
2022-12-13T01:34:40.241Z,94718
2022-12-13T01:35:42.733Z,94714.4
2022-12-13T01:36:44.956Z,94714.1
2022-12-13T01:37:47.424Z,94709.1
2022-12-13T01:38:49.653Z,94709.4
2022-12-13T01:42:03.007Z,94709.8
2022-12-13T01:44:10.670Z,94704.3
2022-12-13T01:45:14.365Z,94698
2022-12-13T01:46:17.772Z,94700.2
2022-12-13T01:47:19.860Z,94694.9
2022-12-13T01:48:22.364Z,94695
2022-12-13T01:49:24.564Z,94693.1
2022-12-13T01:50:26.779Z,94687.1
2022-12-13T01:51:29.302Z,94692.6
2022-12-13T01:52:31.784Z,94695.7
2022-12-13T01:53:33.990Z,94695.5
2022-12-13T01:54:36.161Z,94693.6
2022-12-13T01:56:43.613Z,94688.1
2022-12-13T01:57:50.577Z,94690.8
2022-12-13T01:58:53.059Z,94685
2022-12-13T01:59:55.536Z,94686.6
2022-12-13T02:00:58.239Z,94682.6
2022-12-13T02:02:02.632Z,94682.7
2022-12-13T02:03:04.533Z,94687.8
2022-12-13T02:04:07.041Z,94688.8
2022-12-13T02:05:09.458Z,94684.9
2022-12-13T02:06:12.014Z,94683.8
2022-12-13T02:08:20.235Z,94683.5
2022-12-13T02:09:22.824Z,94682.1
2022-12-13T02:10:25.347Z,94678.4
2022-12-13T02:11:27.831Z,94677.3
2022-12-13T02:12:31.793Z,94682.8
2022-12-13T02:13:34.031Z,94679
2022-12-13T02:14:36.509Z,94680.6
2022-12-13T02:15:38.832Z,94675.8
2022-12-13T02:16:41.459Z,94673.2
2022-12-13T02:17:46.577Z,94670.8
2022-12-13T02:18:49.064Z,94674.1
2022-12-13T02:19:51.274Z,94669.7
2022-12-13T02:20:53.765Z,94669.6
2022-12-13T02:21:56.239Z,94669
2022-12-13T02:22:58.749Z,94665
2022-12-13T02:25:06.205Z,94662.7
2022-12-13T02:26:08.749Z,94665.6
2022-12-13T02:27:10.994Z,94668.7
2022-12-13T02:30:23.299Z,94661.4
2022-12-13T02:31:25.783Z,94658.9
2022-12-13T02:32:28.423Z,94659.5
2022-12-13T02:33:30.627Z,94653.5
2022-12-13T02:35:38.110Z,94647.3
2022-12-13T02:36:40.292Z,94652.4
2022-12-13T02:37:42.778Z,94650.1
2022-12-13T02:38:45.299Z,94651.7
2022-12-13T02:39:47.792Z,94650.5
2022-12-13T02:40:50.277Z,94647.7
2022-12-13T02:41:52.814Z,94647.8
2022-12-13T02:42:55.286Z,94648.3
2022-12-13T02:45:02.773Z,94645.4
2022-12-13T02:46:05.250Z,94645.4
2022-12-13T02:48:12.788Z,94641
2022-12-13T02:49:15.000Z,94638.7
2022-12-13T02:50:17.488Z,94639.8
2022-12-13T02:51:19.721Z,94636
2022-12-13T02:53:26.329Z,94626.8
2022-12-13T02:54:28.991Z,94629.9
2022-12-13T02:55:31.204Z,94629.9
2022-12-13T02:56:33.132Z,94625.9
2022-12-13T02:57:35.663Z,94627.1
2022-12-13T02:58:37.881Z,94623.1
2022-12-13T02:59:40.385Z,94618.5
2022-12-13T03:00:42.583Z,94621.3
2022-12-13T03:01:45.289Z,94624.2
2022-12-13T03:02:48.434Z,94626.8
2022-12-13T03:03:51.422Z,94623.3
2022-12-13T03:04:53.701Z,94623
2022-12-13T03:05:56.180Z,94622.5
2022-12-13T03:06:58.399Z,94625
2022-12-13T03:08:00.863Z,94626.8
2022-12-13T03:09:03.123Z,94625.5
2022-12-13T03:10:05.634Z,94625.5
2022-12-13T03:11:08.129Z,94624.7
2022-12-13T03:12:10.058Z,94622.2
2022-12-13T03:13:12.581Z,94618.9
2022-12-13T03:14:14.513Z,94622.8
2022-12-13T03:15:17.841Z,94617.7
2022-12-13T03:17:25.095Z,94617.7
2022-12-13T03:18:27.579Z,94616.5
2022-12-13T03:19:30.063Z,94614
2022-12-13T03:20:32.313Z,94620.2
2022-12-13T03:22:40.513Z,94618.4
2022-12-13T03:23:43.014Z,94625.3
2022-12-13T03:24:45.494Z,94626.1
2022-12-13T03:25:48.003Z,94623.6
2022-12-13T03:26:50.536Z,94623.2
2022-12-13T03:27:52.733Z,94620.5
2022-12-13T03:28:55.254Z,94623.2
2022-12-13T03:29:57.750Z,94623
2022-12-13T03:31:00.535Z,94624.4
2022-12-13T03:32:02.866Z,94621.1
2022-12-13T03:33:04.855Z,94622.8
2022-12-13T03:34:07.359Z,94622.5
2022-12-13T03:36:15.041Z,94619
2022-12-13T03:37:16.960Z,94612.8
2022-12-13T03:39:24.422Z,94616.5
2022-12-13T03:40:26.898Z,94618.3
2022-12-13T03:41:29.133Z,94617.1
2022-12-13T03:42:31.616Z,94615.3
2022-12-13T03:43:34.109Z,94611.2
2022-12-13T03:44:36.628Z,94613.6
2022-12-13T03:45:39.111Z,94609.9
2022-12-13T03:46:42.045Z,94612.2
2022-12-13T03:47:44.608Z,94617.6
2022-12-13T03:48:46.816Z,94616.5
2022-12-13T03:50:54.019Z,94618.4
2022-12-13T03:51:56.233Z,94613.4
2022-12-13T03:52:58.425Z,94619.9
2022-12-13T03:54:00.922Z,94614.4
2022-12-13T03:55:03.409Z,94613.4
2022-12-13T03:56:05.389Z,94606.6
2022-12-13T03:57:07.918Z,94610.5
2022-12-13T03:59:15.095Z,94600.4
2022-12-13T04:00:17.534Z,94604.6
2022-12-13T04:01:20.457Z,94601.2
2022-12-13T04:03:27.917Z,94597.6
2022-12-13T04:04:30.262Z,94601.3
2022-12-13T04:05:32.771Z,94596.8
2022-12-13T04:06:34.978Z,94597.6
2022-12-13T04:07:37.482Z,94594
2022-12-13T04:08:40.416Z,94599.4
2022-12-13T04:09:43.150Z,94596.9
2022-12-13T04:10:45.653Z,94591.9
2022-12-13T04:11:47.881Z,94597
2022-12-13T04:12:50.392Z,94593.8
2022-12-13T04:13:52.370Z,94591.9
2022-12-13T04:14:54.839Z,94596.1
2022-12-13T04:15:57.537Z,94591.3
2022-12-13T04:16:59.850Z,94592.8
2022-12-13T04:18:03.705Z,94594.3
2022-12-13T04:19:06.211Z,94593
2022-12-13T04:20:08.772Z,94592.4
2022-12-13T04:21:10.697Z,94595
2022-12-13T04:22:13.178Z,94595.6
2022-12-13T04:23:15.380Z,94599.6
2022-12-13T04:24:17.642Z,94600.9
2022-12-13T04:25:19.869Z,94598.6
2022-12-13T04:26:22.062Z,94595.9
2022-12-13T04:27:23.965Z,94595.8
2022-12-13T04:28:26.478Z,94593.8
2022-12-13T04:30:33.648Z,94592.9
2022-12-13T04:31:36.470Z,94596.2
2022-12-13T04:32:39.021Z,94594.9
2022-12-13T04:33:41.871Z,94595.6
2022-12-13T04:34:44.076Z,94595.4
2022-12-13T04:35:46.576Z,94597.2
2022-12-13T04:36:49.073Z,94594.4
2022-12-13T04:37:50.989Z,94592.4
2022-12-13T04:38:53.491Z,94597.8
2022-12-13T04:41:00.960Z,94592.6
2022-12-13T04:42:03.169Z,94591.7
2022-12-13T04:43:05.374Z,94591.7
2022-12-13T04:45:14.446Z,94592.6
2022-12-13T04:46:17.325Z,94593.4
2022-12-13T04:47:20.423Z,94593
2022-12-13T04:49:28.005Z,94588.6
2022-12-13T04:50:30.028Z,94585.8
2022-12-13T04:51:32.299Z,94587.6
2022-12-13T04:52:34.497Z,94587.4
2022-12-13T04:53:36.997Z,94586.3
2022-12-13T04:54:39.204Z,94588.4
2022-12-13T04:55:41.687Z,94586.1
2022-12-13T04:56:43.673Z,94579.9
2022-12-13T04:57:46.157Z,94588.5
2022-12-13T04:58:48.087Z,94585
2022-12-13T04:59:50.593Z,94583
2022-12-13T05:00:53.436Z,94577.8
2022-12-13T05:01:56.234Z,94581.4
2022-12-13T05:02:58.804Z,94583.3
2022-12-13T05:04:00.722Z,94584.8
2022-12-13T05:05:03.199Z,94581.3
2022-12-13T05:06:05.678Z,94580.7
2022-12-13T05:07:12.147Z,94579.4
2022-12-13T05:08:14.926Z,94581.4
2022-12-13T05:09:17.213Z,94574.7
2022-12-13T05:11:24.670Z,94565.7
2022-12-13T05:12:27.172Z,94566.2
2022-12-13T05:13:29.667Z,94565.3
2022-12-13T05:14:31.890Z,94563.8
2022-12-13T05:15:34.777Z,94563.9
2022-12-13T05:16:37.738Z,94557.9
2022-12-13T05:17:40.336Z,94560.4
2022-12-13T05:18:42.607Z,94563.5
2022-12-13T05:19:44.550Z,94555.7
2022-12-13T05:20:47.047Z,94556.9
2022-12-13T05:21:49.539Z,94557.1
2022-12-13T05:22:52.042Z,94557.6
2022-12-13T05:23:54.529Z,94553.9
2022-12-13T05:24:57.017Z,94556.3
2022-12-13T05:25:59.233Z,94560
2022-12-13T05:27:01.454Z,94561
2022-12-13T05:29:12.593Z,94563.8
2022-12-13T05:30:15.085Z,94563.4
2022-12-13T05:32:22.795Z,94573.6
2022-12-13T05:33:25.093Z,94566.9
2022-12-13T05:34:27.662Z,94570.2
2022-12-13T05:35:30.143Z,94572.2
2022-12-13T05:36:32.620Z,94570.8
2022-12-13T05:37:36.452Z,94568.7
2022-12-13T05:38:38.418Z,94569.8
2022-12-13T05:39:40.891Z,94563.7
2022-12-13T05:40:42.903Z,94564.7
2022-12-13T05:41:45.387Z,94563.3
2022-12-13T05:42:47.615Z,94560
2022-12-13T05:43:50.128Z,94560.1
2022-12-13T05:44:52.315Z,94564.9
2022-12-13T05:45:54.977Z,94561.8
2022-12-13T05:46:57.597Z,94562.7
2022-12-13T05:48:00.079Z,94565.7
2022-12-13T05:49:02.585Z,94562
2022-12-13T05:50:04.844Z,94562.3
2022-12-13T05:52:12.309Z,94568.3
2022-12-13T05:54:19.512Z,94565.3
2022-12-13T05:55:22.140Z,94570.6
2022-12-13T05:56:24.888Z,94564.6
2022-12-13T05:57:27.066Z,94571.7
2022-12-13T05:59:34.551Z,94564.5
2022-12-13T06:00:37.032Z,94564.7
2022-12-13T06:02:45.087Z,94564.5
2022-12-13T06:03:48.169Z,94561.8
2022-12-13T06:04:50.882Z,94561.9
2022-12-13T06:05:53.401Z,94557.2
2022-12-13T06:06:55.664Z,94559.1
2022-12-13T06:08:00.413Z,94556.6
2022-12-13T06:09:03.358Z,94562.3
2022-12-13T06:14:29.443Z,94561.8
2022-12-13T06:16:37.152Z,94566
2022-12-13T06:17:39.458Z,94563.1
2022-12-13T06:18:41.972Z,94564
2022-12-13T06:19:43.927Z,94561.6
2022-12-13T06:20:46.476Z,94564.1
2022-12-13T06:21:49.000Z,94561.5
2022-12-13T06:22:51.544Z,94566.5
2022-12-13T06:23:53.738Z,94564.7
2022-12-13T06:24:56.229Z,94562.6
2022-12-13T06:25:58.704Z,94563.1
2022-12-13T06:27:00.918Z,94563.5
2022-12-13T06:28:03.417Z,94563.5
2022-12-13T06:29:05.374Z,94562.4
2022-12-13T06:30:07.608Z,94558.5
2022-12-13T06:31:10.247Z,94558.8
2022-12-13T06:32:12.588Z,94559.8
2022-12-13T06:34:20.927Z,94560.5
2022-12-13T06:36:28.138Z,94567
2022-12-13T06:37:31.837Z,94564.4
2022-12-13T06:38:34.329Z,94570.1
2022-12-13T06:39:42.184Z,94574.8
2022-12-13T06:40:44.452Z,94572.7
2022-12-13T06:41:46.404Z,94570
2022-12-13T06:42:48.623Z,94571.5
2022-12-13T06:43:51.101Z,94568.6
2022-12-13T06:45:58.732Z,94573.1
2022-12-13T06:48:06.302Z,94568.1
2022-12-13T06:49:08.800Z,94571.1
2022-12-13T06:50:11.302Z,94572.8
2022-12-13T06:52:19.307Z,94569.5
2022-12-13T06:53:21.865Z,94574.4
2022-12-13T06:54:23.813Z,94572.5
2022-12-13T06:55:26.033Z,94570.2
2022-12-13T06:56:28.244Z,94574.3
2022-12-13T06:57:30.444Z,94577
2022-12-13T06:58:32.963Z,94576.4
2022-12-13T06:59:35.179Z,94579.9
2022-12-13T07:02:48.532Z,94577.4
2022-12-13T07:03:55.244Z,94578.1
2022-12-13T07:04:57.856Z,94579.5
2022-12-13T07:05:59.775Z,94579.5
2022-12-13T07:07:03.465Z,94579.4
2022-12-13T07:08:06.152Z,94577.6
2022-12-13T07:09:08.835Z,94580.3
2022-12-13T07:11:16.305Z,94576.9
2022-12-13T07:12:18.565Z,94578.6
2022-12-13T07:13:21.422Z,94577.2
2022-12-13T07:14:23.933Z,94581.5
2022-12-13T07:15:26.508Z,94578.7
2022-12-13T07:16:29.108Z,94581.5
2022-12-13T07:18:36.333Z,94581.6
2022-12-13T07:19:38.857Z,94583.9
2022-12-13T07:20:41.073Z,94584.2
2022-12-13T07:21:43.555Z,94590.8
2022-12-13T07:24:55.818Z,94591.5
2022-12-13T07:25:58.029Z,94594.1
2022-12-13T07:27:00.520Z,94595.2
2022-12-13T07:28:04.543Z,94594.4
2022-12-13T07:29:07.025Z,94589.9
2022-12-13T07:30:09.226Z,94592
2022-12-13T07:31:11.615Z,94588.6
2022-12-13T07:32:13.369Z,94587
2022-12-13T07:34:20.930Z,94582.7
2022-12-13T07:35:22.574Z,94581.3
2022-12-13T07:36:24.798Z,94585.1
2022-12-13T07:38:32.271Z,94590.1
2022-12-13T07:39:34.791Z,94587.7
2022-12-13T07:40:38.004Z,94585
2022-12-13T07:41:40.047Z,94586.1
2022-12-13T07:42:42.273Z,94582.7
2022-12-13T07:43:44.760Z,94581.9
2022-12-13T07:44:46.975Z,94584.7
2022-12-13T07:45:49.184Z,94577.2
2022-12-13T07:46:51.790Z,94582.7
2022-12-13T07:47:54.535Z,94581.8
2022-12-13T07:50:03.282Z,94579
2022-12-13T07:51:05.485Z,94584.7
2022-12-13T07:52:07.963Z,94581
2022-12-13T07:53:10.192Z,94585
2022-12-13T07:54:12.709Z,94584.5
2022-12-13T07:55:15.233Z,94583.4
2022-12-13T07:56:17.769Z,94586
2022-12-13T07:57:20.263Z,94583.2
2022-12-13T07:58:22.481Z,94585.3
2022-12-13T08:00:29.681Z,94585.8
2022-12-13T08:01:32.178Z,94590.7
2022-12-13T08:02:34.815Z,94587.8
2022-12-13T08:03:37.032Z,94587.2
2022-12-13T08:04:40.398Z,94588.6
2022-12-13T08:05:43.346Z,94587.8
2022-12-13T08:06:45.734Z,94591.8
2022-12-13T08:07:48.018Z,94591.5
2022-12-13T08:08:50.633Z,94587.8
2022-12-13T08:09:54.781Z,94586.8
2022-12-13T08:12:02.785Z,94583.6
2022-12-13T08:13:04.753Z,94582.6
2022-12-13T08:14:06.982Z,94586
2022-12-13T08:17:19.418Z,94582.7
2022-12-13T08:18:21.648Z,94582.7
2022-12-13T08:19:23.619Z,94582.7
2022-12-13T08:20:26.371Z,94584
2022-12-13T08:23:38.956Z,94578.7
2022-12-13T08:24:41.163Z,94577.1
2022-12-13T08:25:43.659Z,94572
2022-12-13T08:26:46.165Z,94572.8
2022-12-13T08:27:48.720Z,94573.5
2022-12-13T08:28:50.648Z,94569.7
2022-12-13T08:29:53.149Z,94568.2
2022-12-13T08:30:55.960Z,94568.7
2022-12-13T08:34:08.153Z,94578.3
2022-12-13T08:35:10.360Z,94575.7
2022-12-13T08:36:12.307Z,94576.7
2022-12-13T08:37:14.543Z,94579.5
2022-12-13T08:39:27.677Z,94578.9
2022-12-13T08:40:28.549Z,94577.4
2022-12-13T08:42:36.016Z,94584
2022-12-13T08:43:38.502Z,94580
2022-12-13T08:44:41.018Z,94581
2022-12-13T08:45:42.944Z,94583.8
2022-12-13T08:46:45.662Z,94587.5
2022-12-13T08:47:48.239Z,94585
2022-12-13T08:48:51.289Z,94591.4
2022-12-13T08:49:54.081Z,94596
2022-12-13T08:50:56.581Z,94596.6
2022-12-13T08:51:58.792Z,94596.4
2022-12-13T08:53:00.712Z,94598.7
2022-12-13T08:55:07.902Z,94597.8
2022-12-13T08:56:10.381Z,94598.8
2022-12-13T08:57:12.885Z,94600
2022-12-13T08:58:15.110Z,94602.4
2022-12-13T08:59:17.833Z,94604.3
2022-12-13T09:00:20.049Z,94602.7
2022-12-13T09:01:22.773Z,94603.5
2022-12-13T09:02:25.252Z,94604
2022-12-13T09:03:27.348Z,94604.9
2022-12-13T09:05:36.654Z,94607.9
2022-12-13T09:06:39.171Z,94608.1
2022-12-13T09:07:41.731Z,94605.3
2022-12-13T09:12:01.054Z,94604.3
2022-12-13T09:19:39.468Z,94594.6
2022-12-13T09:20:43.686Z,94597.7
2022-12-13T09:21:46.238Z,94600.5
2022-12-13T09:22:48.292Z,94589.3
2022-12-13T09:23:50.799Z,94591.6
2022-12-13T09:24:53.300Z,94590.7
2022-12-13T09:28:09.739Z,94589.9
2022-12-13T09:29:13.115Z,94587.9
2022-12-13T09:30:15.355Z,94590.8
2022-12-13T09:31:17.601Z,94591.9
2022-12-13T09:32:19.952Z,94593
2022-12-13T09:34:27.706Z,94598.3
2022-12-13T09:35:30.189Z,94594.5
2022-12-13T09:36:32.738Z,94595.2
2022-12-13T09:37:35.244Z,94591.1
2022-12-13T09:38:41.916Z,94588.6
2022-12-13T09:39:44.424Z,94588.8
2022-12-13T09:40:46.919Z,94581.6
2022-12-13T09:41:49.143Z,94584.3
2022-12-13T09:50:27.240Z,94580.6
2022-12-13T09:52:35.156Z,94577.6
2022-12-13T09:53:39.824Z,94575.7
2022-12-13T09:55:48.241Z,94579.2
2022-12-13T09:56:50.467Z,94577.5
2022-12-13T09:57:53.435Z,94577.5
2022-12-13T09:58:55.641Z,94574.5
2022-12-13T10:01:03.340Z,94569.9
2022-12-13T10:02:05.851Z,94567
2022-12-13T10:03:07.853Z,94570.9
2022-12-13T10:04:10.088Z,94567.7
2022-12-13T10:07:21.990Z,94565.1
2022-12-13T10:08:24.550Z,94566.2
2022-12-13T10:09:27.056Z,94568
2022-12-13T10:10:29.792Z,94561.6
2022-12-13T10:11:34.141Z,94560.3
2022-12-13T10:12:36.623Z,94563.3
2022-12-13T10:13:38.833Z,94561.5
2022-12-13T10:14:40.813Z,94562.3
2022-12-13T10:15:42.742Z,94563.4
2022-12-13T10:16:45.569Z,94560.3
2022-12-13T10:18:53.170Z,94557
2022-12-13T10:19:55.400Z,94559.4
2022-12-13T10:20:57.910Z,94563.3
2022-12-13T10:25:15.425Z,94551.5
2022-12-13T10:27:22.920Z,94559.8
2022-12-13T10:28:24.878Z,94556.1
2022-12-13T10:29:27.098Z,94556.6
2022-12-13T10:30:31.055Z,94559.1
2022-12-13T10:31:34.147Z,94555.8
2022-12-13T10:33:41.359Z,94552.6
2022-12-13T10:34:43.308Z,94548.1
2022-12-13T10:35:45.832Z,94551
2022-12-13T10:36:48.060Z,94549.3
2022-12-13T10:37:49.992Z,94550.5
2022-12-13T10:38:52.720Z,94546.5
2022-12-13T10:39:55.217Z,94546.2
2022-12-13T10:42:02.751Z,94544.1
2022-12-13T10:43:05.005Z,94544.2
2022-12-13T10:44:07.217Z,94543.1
2022-12-13T10:45:09.462Z,94539.2
2022-12-13T10:46:12.125Z,94540
2022-12-13T10:48:19.787Z,94538.1
2022-12-13T10:49:22.263Z,94536.3
2022-12-13T10:50:24.753Z,94534.2
2022-12-13T10:51:27.228Z,94536.3
2022-12-13T10:53:34.147Z,94530.8
2022-12-13T10:55:41.616Z,94534.1
2022-12-13T10:56:43.532Z,94535
2022-12-13T10:57:45.795Z,94534
2022-12-13T10:58:48.312Z,94533.5
2022-12-13T10:59:50.554Z,94539.7
2022-12-13T11:00:53.310Z,94536.3
2022-12-13T11:01:55.865Z,94536.2
2022-12-13T11:02:58.433Z,94536.8
2022-12-13T11:06:10.343Z,94530.7
2022-12-13T11:07:12.577Z,94530.5
2022-12-13T11:08:14.544Z,94523.6
2022-12-13T11:11:26.446Z,94517.9
2022-12-13T11:12:28.945Z,94522.4
2022-12-13T11:13:31.293Z,94523.7
2022-12-13T11:15:39.946Z,94521.6
2022-12-13T11:16:42.218Z,94523.1
2022-12-13T11:17:44.823Z,94525
2022-12-13T11:18:46.482Z,94526.8
2022-12-13T11:19:48.962Z,94526.9
2022-12-13T11:21:56.151Z,94523.6
2022-12-13T11:22:58.363Z,94515.8
2022-12-13T11:25:05.565Z,94515.5
2022-12-13T11:26:07.827Z,94515.8
2022-12-13T11:27:09.756Z,94518.2
2022-12-13T11:29:17.070Z,94514.6
2022-12-13T11:30:19.582Z,94517.4
2022-12-13T11:31:21.857Z,94515.8
2022-12-13T11:32:24.489Z,94515.4
2022-12-13T11:33:26.990Z,94513.4
2022-12-13T11:34:29.464Z,94515.3
2022-12-13T11:35:31.972Z,94510.6
2022-12-13T11:36:34.178Z,94512.8
2022-12-13T11:37:36.384Z,94510.9
2022-12-13T11:38:38.607Z,94509.3
2022-12-13T11:39:40.825Z,94506
2022-12-13T11:40:42.757Z,94506.4
2022-12-13T11:41:44.711Z,94504.1
2022-12-13T11:42:48.355Z,94507
2022-12-13T11:43:50.848Z,94507.8
2022-12-13T11:44:53.447Z,94505
2022-12-13T11:45:56.234Z,94502.4
2022-12-13T11:46:58.573Z,94506.7
2022-12-13T11:48:01.134Z,94505.5
2022-12-13T11:49:03.686Z,94501.5
2022-12-13T11:50:06.194Z,94499
2022-12-13T11:51:08.678Z,94497.8
2022-12-13T11:52:10.885Z,94492.9
2022-12-13T11:53:13.371Z,94496.6
2022-12-13T11:55:20.262Z,94495.7
2022-12-13T11:56:21.895Z,94492.8
2022-12-13T11:57:24.456Z,94495
2022-12-13T12:00:37.220Z,94497.1
2022-12-13T12:01:40.561Z,94495.2
2022-12-13T12:02:43.310Z,94493.1
2022-12-13T12:03:46.306Z,94500.2
2022-12-13T12:04:48.901Z,94500.3
2022-12-13T12:05:57.674Z,94504.1
2022-12-13T12:09:10.141Z,94505.4
2022-12-13T12:10:11.807Z,94500.2
2022-12-13T12:11:14.222Z,94502.5
2022-12-13T12:13:21.717Z,94499.1
2022-12-13T12:14:24.188Z,94492.6
2022-12-13T12:15:28.633Z,94488.5
2022-12-13T12:16:31.359Z,94487.8
2022-12-13T12:18:39.044Z,94484.2
2022-12-13T12:19:41.525Z,94490.2
2022-12-13T12:20:44.044Z,94489.4
2022-12-13T12:22:51.519Z,94491.1
2022-12-13T12:23:54.202Z,94484.9
2022-12-13T12:24:56.422Z,94487.3
2022-12-13T12:25:58.628Z,94488.3
2022-12-13T12:27:00.844Z,94484.6
2022-12-13T12:28:03.349Z,94485.9
2022-12-13T12:30:11.206Z,94486.5
2022-12-13T12:31:14.031Z,94486.6
2022-12-13T12:32:16.125Z,94473.7
2022-12-13T12:33:18.396Z,94476.5
2022-12-13T12:35:25.286Z,94472.4
2022-12-13T12:36:27.780Z,94479.1
2022-12-13T12:37:30.274Z,94483.5
2022-12-13T12:38:32.785Z,94481.7
2022-12-13T12:39:35.281Z,94484
2022-12-13T12:43:52.425Z,94483.7
2022-12-13T12:44:54.658Z,94480.8
2022-12-13T12:45:58.983Z,94479.8
2022-12-13T12:49:13.821Z,94484.9
2022-12-13T12:50:15.908Z,94481.8
2022-12-13T12:51:19.008Z,94484.8
2022-12-13T12:52:20.917Z,94481.4
2022-12-13T12:53:22.845Z,94485.9
2022-12-13T12:55:30.011Z,94484.3
2022-12-13T12:56:32.506Z,94487.1
2022-12-13T12:57:34.994Z,94486.8
2022-12-13T12:58:37.514Z,94493.7
2022-12-13T12:59:39.728Z,94494.9
2022-12-13T13:00:41.961Z,94494
2022-12-13T13:01:45.179Z,94501.9
2022-12-13T13:02:47.690Z,94498.3
2022-12-13T13:03:50.516Z,94504.5
2022-12-13T13:04:52.900Z,94503.9
2022-12-13T13:08:05.428Z,94503.3
2022-12-13T13:09:07.479Z,94504.8
2022-12-13T13:14:29.866Z,94507
2022-12-13T13:15:32.433Z,94508
2022-12-13T13:16:34.613Z,94507.4
2022-12-13T13:17:37.119Z,94506.9
2022-12-13T13:18:39.644Z,94505
2022-12-13T13:19:42.129Z,94506.3
2022-12-13T13:20:45.263Z,94505.7
2022-12-13T13:21:47.629Z,94505.3
2022-12-13T13:23:54.829Z,94502.4
2022-12-13T13:24:57.044Z,94505
2022-12-13T13:27:04.504Z,94509.6
2022-12-13T13:28:06.137Z,94512
2022-12-13T13:29:08.094Z,94511
2022-12-13T13:30:10.311Z,94511.5
2022-12-13T13:31:13.081Z,94511.5
2022-12-13T13:33:20.378Z,94509.3
2022-12-13T13:34:22.598Z,94509.4
2022-12-13T13:35:24.823Z,94514.7
2022-12-13T13:37:32.371Z,94515.7
2022-12-13T13:38:34.891Z,94514
2022-12-13T13:39:37.128Z,94515.6
2022-12-13T13:40:39.341Z,94516.1
2022-12-13T13:41:41.829Z,94511.9
2022-12-13T13:42:45.624Z,94514.3
2022-12-13T13:43:48.135Z,94514.9
2022-12-13T13:44:50.091Z,94515.5
2022-12-13T13:45:52.322Z,94517.7
2022-12-13T13:48:00.244Z,94520.3
2022-12-13T13:49:02.752Z,94515.6
2022-12-13T13:50:05.251Z,94516.5
2022-12-13T13:51:07.469Z,94518.6
2022-12-13T13:54:20.007Z,94515.2
2022-12-13T13:55:22.236Z,94512.4
2022-12-13T13:56:24.718Z,94517.4
2022-12-13T13:58:32.191Z,94512.8
2022-12-13T14:00:39.383Z,94517.2
2022-12-13T14:01:41.702Z,94519.5
2022-12-13T14:02:44.539Z,94514.4
2022-12-13T14:03:47.165Z,94516.5
2022-12-13T14:04:49.660Z,94517.9
2022-12-13T14:05:51.872Z,94521.6
2022-12-13T14:07:59.046Z,94521.1
2022-12-13T14:09:01.303Z,94520.1
2022-12-13T14:10:03.589Z,94522.4
2022-12-13T14:11:06.123Z,94518.9
2022-12-13T14:12:08.328Z,94517.1
2022-12-13T14:13:10.519Z,94520.2
2022-12-13T14:15:17.699Z,94515.2
2022-12-13T14:16:22.444Z,94513.7
2022-12-13T14:17:24.786Z,94508.5
2022-12-13T14:18:27.279Z,94511.5
2022-12-13T14:19:29.502Z,94513.5
2022-12-13T14:20:32.314Z,94511.1
2022-12-13T14:21:34.938Z,94511
2022-12-13T14:22:37.139Z,94514.2
2022-12-13T14:23:39.370Z,94513.3
2022-12-13T14:24:41.870Z,94512.4
2022-12-13T14:27:54.408Z,94518.5
2022-12-13T14:28:56.644Z,94517.4
2022-12-13T14:30:00.017Z,94519
2022-12-13T14:31:02.230Z,94516.5
2022-12-13T14:32:04.875Z,94515.8
2022-12-13T14:33:06.837Z,94516
2022-12-13T14:34:08.759Z,94515.7
2022-12-13T14:36:15.954Z,94512.8
2022-12-13T14:37:18.845Z,94509.8
2022-12-13T14:38:21.475Z,94515.9
2022-12-13T14:40:28.970Z,94517.5
2022-12-13T14:41:31.201Z,94517.6
2022-12-13T14:42:33.702Z,94520
2022-12-13T14:43:35.805Z,94521.7
2022-12-13T14:44:38.142Z,94524
2022-12-13T14:45:39.818Z,94523.1
2022-12-13T14:46:42.365Z,94521.1
2022-12-13T14:47:44.914Z,94527.3
2022-12-13T14:48:47.181Z,94529.5
2022-12-13T14:49:50.806Z,94530.7
2022-12-13T14:50:53.050Z,94536.4
2022-12-13T14:51:55.540Z,94531.9
2022-12-13T14:52:58.039Z,94528.2
2022-12-13T14:54:00.519Z,94531
2022-12-13T14:55:02.466Z,94532
2022-12-13T14:56:04.945Z,94527.1
2022-12-13T14:57:07.453Z,94527.1
2022-12-13T14:58:09.949Z,94527.3
2022-12-13T14:59:11.939Z,94525.7
2022-12-13T15:00:14.454Z,94523.4
2022-12-13T15:01:17.147Z,94524
2022-12-13T15:03:27.021Z,94520.3
2022-12-13T15:04:30.726Z,94518.4
2022-12-13T15:05:32.758Z,94520.7
2022-12-13T15:06:35.029Z,94515
2022-12-13T15:07:37.292Z,94519
2022-12-13T15:08:39.497Z,94516.5
2022-12-13T15:09:41.713Z,94519.7
2022-12-13T15:11:49.180Z,94523.5
2022-12-13T15:12:51.113Z,94522.3
2022-12-13T15:13:53.328Z,94521.8
2022-12-13T15:14:55.622Z,94518
2022-12-13T15:15:58.322Z,94518.1
2022-12-13T15:17:00.877Z,94517.5
2022-12-13T15:18:03.108Z,94522.2
2022-12-13T15:20:10.808Z,94524
2022-12-13T15:21:13.438Z,94522.5